Pagrindinis puslapis
METAR-TAF:

METAR-TAF

Oro uostai :

Šel Mera, Ekvadoras

platuma: 01-30-19S, ilguma: 078-03-46W, Aukštis: 1056 m

Dabartinis oras

Ataskaita buvo paskelbta 1 valandą ir 2 minutes, ne 12:00 UTC
Vėjas 5 kt iš Šiaurės Vakarų
Temperatūra 20°C
Drėgmė 94%
Slėgis 1017 hPa
Matomumas 10 km arba daugiau
Mažai debesys ne aukštis 3000 ft
Su prošvaistėmis ne aukštis 10000 ft

METAR: SESM 281200Z 31005KT 9999 FEW030 BKN100 20/19 Q1017 RMK A3005

Laikas: 08:02 (13:02 UTC)


TAF: trūkstamas

Orai ataskaitas ir orų prognozės (METAR, TAF).

turimą stotys yra geltonos ir raudonos taškus žemėlapyje.

Perkelti pele per norėdami pamatyti stoties vardą.

Tada spustelėkite, norėdami matyti oro stebėjimo ir prognozės.

Norėdami pakeisti žemėlapį: spustelėkite ant žalios mygtukų su juodo kryžiaus žemyn,; žalią mygtuką su brūkšneliu, jei norite nutolinti; arba žalių rodyklių gretimoms žemėlapius.


METAR-TAF: